createdAt,value
2018-11-25T00:01:46.679Z,84.99
2018-11-25T00:06:51.190Z,85.21
2018-11-25T00:11:55.728Z,85.14
2018-11-25T00:17:00.313Z,84.12
2018-11-25T00:22:04.784Z,84.56
2018-11-25T00:27:09.340Z,84.05
2018-11-25T00:32:13.921Z,84.00
2018-11-25T00:37:18.601Z,84.03
2018-11-25T00:42:23.138Z,84.62
2018-11-25T00:47:46.643Z,84.31
2018-11-25T00:52:51.326Z,84.32
2018-11-25T00:57:55.875Z,83.96
2018-11-25T01:03:00.429Z,84.69
2018-11-25T01:08:04.998Z,85.19
2018-11-25T01:13:09.534Z,84.89
2018-11-25T01:18:14.134Z,85.56
2018-11-25T01:23:18.650Z,85.16
2018-11-25T01:28:23.191Z,84.20
2018-11-25T01:33:27.757Z,85.00
2018-11-25T01:38:50.966Z,85.29
2018-11-25T01:43:55.500Z,84.64
2018-11-25T01:49:00.119Z,85.68
2018-11-25T01:54:04.632Z,84.46
2018-11-25T01:59:09.177Z,85.26
2018-11-25T02:04:13.706Z,85.02
2018-11-25T02:14:33.858Z,85.63
2018-11-25T02:19:38.411Z,84.99
2018-11-25T02:24:42.980Z,85.04
2018-11-25T02:29:47.562Z,85.09
2018-11-25T02:34:52.162Z,84.92
2018-11-25T02:39:56.720Z,84.93
2018-11-25T02:45:01.286Z,84.65
2018-11-25T02:50:25.884Z,84.94
2018-11-25T02:55:30.480Z,86.52
2018-11-25T03:00:34.987Z,84.99
2018-11-25T03:05:39.556Z,84.67
2018-11-25T03:10:44.093Z,84.88
2018-11-25T03:15:48.697Z,84.32
2018-11-25T03:20:53.305Z,84.96
2018-11-25T03:25:57.871Z,86.72
2018-11-25T03:31:21.175Z,85.86
2018-11-25T03:36:25.738Z,84.97
2018-11-25T03:41:48.960Z,85.07
2018-11-25T03:46:53.524Z,84.93
2018-11-25T03:51:58.066Z,84.86
2018-11-25T03:57:02.617Z,84.82
2018-11-25T04:02:07.164Z,85.17
2018-11-25T04:07:30.374Z,85.15
2018-11-25T04:12:34.953Z,86.25
2018-11-25T04:17:39.483Z,84.59
2018-11-25T04:23:03.002Z,84.92
2018-11-25T04:28:07.623Z,84.85
2018-11-25T04:33:12.128Z,84.88
2018-11-25T04:38:16.706Z,85.26
2018-11-25T04:43:21.256Z,84.81
2018-11-25T04:48:25.849Z,86.34
2018-11-25T04:53:30.467Z,86.02
2018-11-25T04:58:34.999Z,85.16
2018-11-25T05:03:39.628Z,84.75
2018-11-25T05:09:02.908Z,86.11
2018-11-25T05:14:07.778Z,84.86
2018-11-25T05:19:12.340Z,85.09
2018-11-25T05:29:46.142Z,85.66
2018-11-25T05:34:50.651Z,85.40
2018-11-25T05:40:14.182Z,85.95
2018-11-25T05:45:38.450Z,84.74
2018-11-25T05:50:43.019Z,85.61
2018-11-25T05:55:47.453Z,85.28
2018-11-25T06:00:52.009Z,86.25
2018-11-25T06:05:56.512Z,86.55
2018-11-25T06:11:01.088Z,85.59
2018-11-25T06:16:05.884Z,85.20
2018-11-25T06:21:10.471Z,85.13
2018-11-25T06:26:15.007Z,84.58
2018-11-25T06:31:19.552Z,84.81
2018-11-25T06:36:24.107Z,84.89
2018-11-25T06:41:33.867Z,85.14
2018-11-25T06:46:51.821Z,85.30
2018-11-25T06:51:56.372Z,84.82
2018-11-25T06:57:00.921Z,85.50
2018-11-25T07:02:05.476Z,85.35
2018-11-25T07:07:29.039Z,85.08
2018-11-25T07:12:33.637Z,84.73
2018-11-25T07:17:38.370Z,85.00
2018-11-25T07:22:42.856Z,85.02
2018-11-25T07:27:47.450Z,85.93
2018-11-25T07:32:52.331Z,85.72
2018-11-25T07:37:57.071Z,86.39
2018-11-25T07:43:01.555Z,87.21
2018-11-25T07:48:06.347Z,85.50
2018-11-25T07:53:10.882Z,85.50
2018-11-25T07:58:15.813Z,86.02
2018-11-25T08:03:20.308Z,86.60
2018-11-25T08:08:34.374Z,86.55
2018-11-25T08:13:38.907Z,86.26
2018-11-25T08:18:43.430Z,85.72
2018-11-25T08:24:06.968Z,85.58
2018-11-25T08:29:11.522Z,84.75
2018-11-25T08:34:16.160Z,84.67
2018-11-25T08:39:20.807Z,84.04
2018-11-25T08:49:35.657Z,84.07
2018-11-25T08:54:40.241Z,83.75
2018-11-25T08:59:44.929Z,83.06
2018-11-25T09:04:49.445Z,82.53
2018-11-25T09:09:53.974Z,82.82
2018-11-25T09:14:58.581Z,81.52
2018-11-25T09:20:03.197Z,80.57
2018-11-25T09:25:09.916Z,80.51
2018-11-25T09:30:42.895Z,80.61
2018-11-25T09:35:47.391Z,80.40
2018-11-25T09:40:58.967Z,80.42
2018-11-25T09:45:56.572Z,79.65
2018-11-25T09:51:01.101Z,79.92
2018-11-25T09:56:06.410Z,79.54
2018-11-25T10:01:10.961Z,79.95
2018-11-25T10:06:15.490Z,78.97
2018-11-25T10:11:20.077Z,79.44
2018-11-25T10:16:24.635Z,79.07
2018-11-25T10:21:29.327Z,79.51
2018-11-25T10:26:34.028Z,79.25
2018-11-25T10:31:57.474Z,78.91
2018-11-25T10:37:02.027Z,78.35
2018-11-25T10:42:06.965Z,78.46
2018-11-25T10:47:11.593Z,77.85
2018-11-25T10:52:16.164Z,77.80
2018-11-25T10:57:20.740Z,77.45
2018-11-25T11:02:43.992Z,76.95
2018-11-25T11:07:48.738Z,76.84
2018-11-25T11:13:12.216Z,76.79
2018-11-25T11:18:16.856Z,76.84
2018-11-25T11:23:21.369Z,77.44
2018-11-25T11:28:25.974Z,77.21
2018-11-25T11:33:30.531Z,77.21
2018-11-25T11:38:35.064Z,77.50
2018-11-25T11:43:39.611Z,77.33
2018-11-25T11:49:02.784Z,77.44
2018-11-25T11:54:07.431Z,77.08
2018-11-25T11:59:11.944Z,76.85
2018-11-25T12:04:16.483Z,77.42
2018-11-25T12:09:20.982Z,77.57
2018-11-25T12:14:25.629Z,77.76
2018-11-25T12:19:30.277Z,78.08
2018-11-25T12:24:34.795Z,77.62
2018-11-25T12:29:39.367Z,77.93
2018-11-25T12:34:43.935Z,77.69
2018-11-25T12:39:48.479Z,77.68
2018-11-25T12:45:12.015Z,77.10
2018-11-25T12:50:36.114Z,76.44
2018-11-25T12:55:59.601Z,76.77
2018-11-25T13:01:04.137Z,76.55
2018-11-25T13:06:08.675Z,76.55
2018-11-25T13:11:32.204Z,76.44
2018-11-25T13:16:36.728Z,76.35
2018-11-25T13:21:41.334Z,76.39
2018-11-25T13:26:45.889Z,75.86
2018-11-25T13:31:50.410Z,75.39
2018-11-25T13:36:54.957Z,75.31
2018-11-25T13:41:59.517Z,75.22
2018-11-25T13:47:04.005Z,75.30
2018-11-25T13:52:09.022Z,75.21
2018-11-25T13:57:13.589Z,75.00
2018-11-25T14:02:18.120Z,75.22
2018-11-25T14:07:22.733Z,75.44
2018-11-25T14:12:27.466Z,75.51
2018-11-25T14:17:32.099Z,75.16
2018-11-25T14:22:55.503Z,74.97
2018-11-25T14:28:20.082Z,75.20
2018-11-25T14:33:24.609Z,74.64
2018-11-25T14:38:29.149Z,74.80
2018-11-25T14:43:33.682Z,75.01
2018-11-25T14:48:38.208Z,75.43
2018-11-25T14:53:42.775Z,75.58
2018-11-25T14:58:47.438Z,75.94
2018-11-25T15:03:53.198Z,75.98
2018-11-25T15:08:57.707Z,76.47
2018-11-25T15:14:04.948Z,76.66
2018-11-25T15:19:09.409Z,76.60
2018-11-25T15:24:14.075Z,76.71
2018-11-25T15:29:18.609Z,76.68
2018-11-25T15:34:23.136Z,76.75
2018-11-25T15:39:27.746Z,77.39
2018-11-25T15:50:01.593Z,77.65
2018-11-25T15:55:25.527Z,77.83
2018-11-25T16:00:30.041Z,78.33
2018-11-25T16:05:35.006Z,78.71
2018-11-25T16:10:39.575Z,79.33
2018-11-25T16:16:03.194Z,79.92
2018-11-25T16:21:07.990Z,79.92
2018-11-25T16:26:32.761Z,80.78
2018-11-25T16:31:37.345Z,80.78
2018-11-25T16:36:41.854Z,80.15
2018-11-25T16:41:46.404Z,80.85
2018-11-25T16:46:50.910Z,80.98
2018-11-25T16:51:55.435Z,81.55
2018-11-25T16:56:59.978Z,82.00
2018-11-25T17:02:42.331Z,81.78
2018-11-25T17:08:06.710Z,82.63
2018-11-25T17:13:13.986Z,82.84
2018-11-25T17:18:18.429Z,83.39
2018-11-25T17:23:23.004Z,83.13
2018-11-25T17:28:27.551Z,83.03
2018-11-25T17:33:32.080Z,83.68
2018-11-25T17:38:36.593Z,83.99
2018-11-25T17:43:41.137Z,83.99
2018-11-25T17:48:45.651Z,85.07
2018-11-25T17:53:53.635Z,83.95
2018-11-25T17:58:58.201Z,84.64
2018-11-25T18:04:21.907Z,83.91
2018-11-25T18:09:26.418Z,84.05
2018-11-25T18:14:31.030Z,83.99
2018-11-25T18:19:35.550Z,84.89
2018-11-25T18:24:40.307Z,84.27
2018-11-25T18:29:44.858Z,84.62
2018-11-25T18:34:49.419Z,84.25
2018-11-25T18:40:12.704Z,83.92
2018-11-25T18:45:40.566Z,84.17
2018-11-25T18:50:43.058Z,84.03
2018-11-25T18:55:45.797Z,83.87
2018-11-25T19:01:28.353Z,83.57
2018-11-25T19:06:33.047Z,83.86
2018-11-25T19:17:08.515Z,83.83
2018-11-25T19:22:13.267Z,84.07
2018-11-25T19:32:42.605Z,84.19
2018-11-25T19:37:48.392Z,83.98
2018-11-25T19:48:16.919Z,84.44
2018-11-25T19:58:45.449Z,83.78
2018-11-25T20:03:50.259Z,86.37
2018-11-25T20:14:24.661Z,84.16
2018-11-25T20:19:48.757Z,84.39
2018-11-25T20:24:53.336Z,84.79
2018-11-25T20:29:57.959Z,84.72
2018-11-25T20:35:09.999Z,84.78
2018-11-25T20:40:33.418Z,84.33
2018-11-25T20:45:56.668Z,83.74
2018-11-25T20:51:01.250Z,84.35
2018-11-25T20:56:27.562Z,83.51
2018-11-25T21:01:29.467Z,85.41
2018-11-25T21:06:53.027Z,84.44
2018-11-25T21:11:57.604Z,84.10
2018-11-25T21:17:21.168Z,83.81
2018-11-25T21:23:05.207Z,85.14
2018-11-25T21:28:28.735Z,85.14
2018-11-25T21:33:33.361Z,83.91
2018-11-25T21:38:38.531Z,84.36
2018-11-25T21:43:42.971Z,83.61
2018-11-25T21:48:47.599Z,84.61
2018-11-25T21:59:53.974Z,84.71
2018-11-25T22:04:58.481Z,84.15
2018-11-25T22:10:03.219Z,84.04
2018-11-25T22:15:10.209Z,84.53
2018-11-25T22:20:33.688Z,84.60
2018-11-25T22:25:38.310Z,85.23
2018-11-25T22:30:42.870Z,86.87
2018-11-25T22:35:47.443Z,85.00
2018-11-25T22:40:52.002Z,85.29
2018-11-25T22:45:56.557Z,85.24
2018-11-25T22:51:01.080Z,85.43
2018-11-25T22:56:05.720Z,85.44
2018-11-25T23:01:10.229Z,85.13
2018-11-25T23:06:52.747Z,85.19
2018-11-25T23:11:57.335Z,85.40
2018-11-25T23:17:01.848Z,86.77
2018-11-25T23:22:06.556Z,85.28
2018-11-25T23:27:11.137Z,84.37
2018-11-25T23:32:15.648Z,83.87
2018-11-25T23:37:20.213Z,84.95
2018-11-25T23:42:24.742Z,84.62
2018-11-25T23:47:29.328Z,85.05
2018-11-25T23:52:33.895Z,85.02
2018-11-25T23:57:38.429Z,84.95
